Weather at Charlotte-Monroe Executive Airport

Public forecast

Using degrees Fahrenheit for public forecast. Weather courtesy of forecast.io.

Current aviation weather report (METAR) for Charlotte-Monroe Executive Airport

Retrieved 2020/10/01 10:53 UTC (57 minutes ago):

KEQY 011053Z AUTO 00000KT 10SM CLR 11/11 A3001 RMK AO2 SLP169 T01110106

Closest aviation forecast (TAF) to Charlotte-Monroe Executive Airport

Closest forecast is Charlotte Douglas International Airport, 19.7 nm (36.5 km) NW. Retrieved 2020/10/01 06:42 UTC (5 hours ago):

TAF KCLT 010539Z 0106/0212 20005KT P6SM SKC FM012100 23005KT P6SM FEW045 FM020000 35009G15KT P6SM VCSH BKN045 FM020500 35005KT P6SM FEW250